Terminal Aerodrome Forecast
Issued by NWS

Home | Current Version | Previous Version | Text Only | Print | Product List | Glossary On
Versions: 1 2 3 4 5 6 7 8 9 10 11 12 13 14 15 16 17 18 19
248
FTUS46 KLOX 200731 AAA
TAFPMD
TAF AMD
KPMD 200731Z 2008/2106 23012KT P6SM VCSH OVC100
     FM201000 23012KT P6SM -RA BKN050
     FM201600 22015G23KT P6SM VCSH SCT025 BKN035
     FM210100 VRB05KT 6SM BR OVC007=

USA.gov is the U.S. government's official web portal to all federal, state and local government web resources and services.